createdAt,value
2018-02-25T00:00:25.898Z,101996.95
2018-02-25T00:02:53.592Z,101993.61
2018-02-25T00:05:21.279Z,101988.70
2018-02-25T00:07:48.976Z,101993.69
2018-02-25T00:10:16.662Z,101999.37
2018-02-25T00:12:44.366Z,102001.16
2018-02-25T00:15:12.034Z,102000.83
2018-02-25T00:17:39.731Z,102009.33
2018-02-25T00:20:07.521Z,102005.41
2018-02-25T00:22:35.210Z,102007.34
2018-02-25T00:25:02.877Z,102006.67
2018-02-25T00:27:30.555Z,102011.60
2018-02-25T00:29:58.263Z,102013.04
2018-02-25T00:32:25.953Z,102013.93
2018-02-25T00:34:53.791Z,102012.87
2018-02-25T00:37:21.490Z,102021.06
2018-02-25T00:39:49.150Z,102019.25
2018-02-25T00:42:16.856Z,102028.75
2018-02-25T00:44:44.736Z,102040.12
2018-02-25T00:47:12.444Z,102037.47
2018-02-25T00:49:40.104Z,102038.64
2018-02-25T00:52:07.810Z,102041.44
2018-02-25T00:54:35.473Z,102036.13
2018-02-25T00:57:03.177Z,102041.53
2018-02-25T00:59:30.858Z,102044.63
2018-02-25T01:01:58.559Z,102043.31
2018-02-25T01:04:26.225Z,102049.53
2018-02-25T01:06:53.920Z,102056.92
2018-02-25T01:09:21.582Z,102053.56
2018-02-25T01:11:49.273Z,102049.02
2018-02-25T01:14:16.942Z,102049.12
2018-02-25T01:16:44.643Z,102047.14
2018-02-25T01:19:12.358Z,102049.05
2018-02-25T01:21:40.039Z,102054.35
2018-02-25T01:24:07.685Z,102044.65
2018-02-25T01:26:35.385Z,102057.16
2018-02-25T01:29:03.458Z,102056.16
2018-02-25T01:31:31.194Z,102059.16
2018-02-25T01:33:58.869Z,102054.49
2018-02-25T01:36:26.574Z,102055.92
2018-02-25T01:38:54.408Z,102055.39
2018-02-25T01:41:22.111Z,102059.95
2018-02-25T01:43:49.767Z,102054.39
2018-02-25T01:46:17.554Z,102057.06
2018-02-25T01:48:45.220Z,102049.24
2018-02-25T01:51:13.019Z,102046.75
2018-02-25T01:53:40.714Z,102053.33
2018-02-25T01:56:08.506Z,102049.18
2018-02-25T01:58:36.218Z,102046.86
2018-02-25T02:01:03.901Z,102051.52
2018-02-25T02:03:31.603Z,102057.26
2018-02-25T02:05:59.271Z,102058.14
2018-02-25T02:08:26.982Z,102055.77
2018-02-25T02:10:54.650Z,102046.58
2018-02-25T02:13:22.349Z,102043.36
2018-02-25T02:15:50.013Z,102046.41
2018-02-25T02:18:17.722Z,102049.81
2018-02-25T02:20:45.386Z,102050.78
2018-02-25T02:23:13.086Z,102050.44
2018-02-25T02:25:40.907Z,102050.51
2018-02-25T02:28:08.625Z,102058.69
2018-02-25T02:30:36.283Z,102058.83
2018-02-25T02:33:03.948Z,102053.27
2018-02-25T02:35:31.660Z,102052.03
2018-02-25T02:37:59.383Z,102053.79
2018-02-25T02:40:27.082Z,102058.56
2018-02-25T02:42:54.754Z,102061.70
2018-02-25T02:45:22.457Z,102063.06
2018-02-25T02:47:50.302Z,102066.70
2018-02-25T02:50:18.060Z,102071.06
2018-02-25T02:52:45.730Z,102067.65
2018-02-25T02:55:13.571Z,102080.22
2018-02-25T02:57:41.267Z,102075.44
2018-02-25T03:00:08.922Z,102069.75
2018-02-25T03:02:36.635Z,102076.53
2018-02-25T03:05:04.312Z,102083.68
2018-02-25T03:07:32.126Z,102081.19
2018-02-25T03:09:59.787Z,102082.95
2018-02-25T03:12:27.535Z,102081.27
2018-02-25T03:14:55.237Z,102084.57
2018-02-25T03:17:22.935Z,102081.84
2018-02-25T03:19:50.599Z,102079.31
2018-02-25T03:22:18.311Z,102075.45
2018-02-25T03:24:45.974Z,102079.05
2018-02-25T03:27:13.679Z,102083.46
2018-02-25T03:29:41.335Z,102084.55
2018-02-25T03:32:09.043Z,102079.50
2018-02-25T03:34:36.830Z,102074.19
2018-02-25T03:37:04.718Z,102080.65
2018-02-25T03:39:32.388Z,102080.80
2018-02-25T03:42:00.127Z,102083.59
2018-02-25T03:44:27.817Z,102082.50
2018-02-25T03:46:55.475Z,102087.59
2018-02-25T03:49:23.167Z,102090.91
2018-02-25T03:51:50.882Z,102096.67
2018-02-25T03:54:18.658Z,102094.81
2018-02-25T03:56:46.331Z,102089.83
2018-02-25T03:59:14.055Z,102098.09
2018-02-25T04:01:41.742Z,102103.84
2018-02-25T04:04:09.430Z,102105.51
2018-02-25T04:06:37.091Z,102108.83
2018-02-25T04:09:05.526Z,102110.14
2018-02-25T04:11:33.189Z,102111.27
2018-02-25T04:14:00.913Z,102107.38
2018-02-25T04:16:28.582Z,102110.63
2018-02-25T04:18:56.294Z,102119.19
2018-02-25T04:21:23.951Z,102118.11
2018-02-25T04:23:51.618Z,102115.09
2018-02-25T04:26:19.331Z,102119.03
2018-02-25T04:28:46.998Z,102134.60
2018-02-25T04:31:14.702Z,102134.06
2018-02-25T04:33:42.438Z,102132.67
2018-02-25T04:36:10.153Z,102137.58
2018-02-25T04:38:37.818Z,102131.90
2018-02-25T04:41:05.526Z,102145.19
2018-02-25T04:43:33.194Z,102144.73
2018-02-25T04:46:00.997Z,102136.42
2018-02-25T04:48:28.671Z,102149.39
2018-02-25T04:50:56.410Z,102148.70
2018-02-25T04:53:24.074Z,102155.23
2018-02-25T04:55:51.739Z,102158.05
2018-02-25T04:58:19.595Z,102152.17
2018-02-25T05:00:47.265Z,102159.98
2018-02-25T05:03:14.962Z,102164.73
2018-02-25T05:05:42.639Z,102169.21
2018-02-25T05:08:10.326Z,102171.36
2018-02-25T05:10:38.002Z,102167.25
2018-02-25T05:13:05.693Z,102171.23
2018-02-25T05:15:33.370Z,102170.61
2018-02-25T05:18:01.122Z,102174.35
2018-02-25T05:20:28.787Z,102181.03
2018-02-25T05:22:56.486Z,102179.47
2018-02-25T05:25:24.155Z,102189.65
2018-02-25T05:27:51.882Z,102186.81
2018-02-25T05:32:53.670Z,102195.26
2018-02-25T05:35:21.334Z,102196.22
2018-02-25T05:37:49.006Z,102195.49
2018-02-25T05:40:16.702Z,102191.98
2018-02-25T05:42:44.369Z,102196.27
2018-02-25T05:45:12.091Z,102190.67
2018-02-25T05:47:39.742Z,102186.46
2018-02-25T05:50:07.439Z,102185.53
2018-02-25T05:52:35.166Z,102190.50
2018-02-25T05:55:02.882Z,102189.59
2018-02-25T05:57:30.585Z,102190.90
2018-02-25T05:59:58.210Z,102187.47
2018-02-25T06:02:25.907Z,102175.26
2018-02-25T06:04:53.562Z,102176.08
2018-02-25T06:07:21.279Z,102181.73
2018-02-25T06:09:48.951Z,102183.68
2018-02-25T06:12:16.635Z,102178.90
2018-02-25T06:14:44.342Z,102182.50
2018-02-25T06:17:12.054Z,102179.05
2018-02-25T06:19:39.725Z,102184.84
2018-02-25T06:22:07.425Z,102180.02
2018-02-25T06:24:35.122Z,102185.66
2018-02-25T06:27:02.790Z,102183.89
2018-02-25T06:29:30.513Z,102184.59
2018-02-25T06:31:58.217Z,102185.84
2018-02-25T06:34:25.922Z,102181.59
2018-02-25T06:36:53.598Z,102185.98
2018-02-25T06:39:21.294Z,102193.09
2018-02-25T06:41:48.978Z,102189.02
2018-02-25T06:44:16.689Z,102194.83
2018-02-25T06:46:44.355Z,102195.11
2018-02-25T06:49:12.042Z,102199.78
2018-02-25T06:51:39.737Z,102203.47
2018-02-25T06:54:07.400Z,102213.80
2018-02-25T06:56:35.090Z,102213.80
2018-02-25T06:59:02.783Z,102211.64
2018-02-25T07:01:30.499Z,102211.85
2018-02-25T07:03:58.162Z,102213.45
2018-02-25T07:06:25.961Z,102214.09
2018-02-25T07:08:53.622Z,102216.00
2018-02-25T07:11:21.338Z,102219.25
2018-02-25T07:13:49.024Z,102224.62
2018-02-25T07:16:16.751Z,102228.48
2018-02-25T07:18:44.422Z,102233.45
2018-02-25T07:21:12.082Z,102235.36
2018-02-25T07:23:39.994Z,102236.56
2018-02-25T07:26:07.656Z,102243.58
2018-02-25T07:28:35.350Z,102241.38
2018-02-25T07:31:03.006Z,102248.59
2018-02-25T07:33:30.714Z,102247.44
2018-02-25T07:35:58.395Z,102240.95
2018-02-25T07:38:26.118Z,102246.41
2018-02-25T07:40:53.787Z,102245.38
2018-02-25T07:43:21.494Z,102244.49
2018-02-25T07:45:49.165Z,102248.35
2018-02-25T07:48:17.026Z,102247.64
2018-02-25T07:50:44.689Z,102244.67
2018-02-25T07:53:12.400Z,102253.73
2018-02-25T07:55:40.072Z,102257.03
2018-02-25T07:58:07.769Z,102253.37
2018-02-25T08:00:35.495Z,102257.79
2018-02-25T08:03:03.218Z,102253.55
2018-02-25T08:05:30.907Z,102254.56
2018-02-25T08:07:58.580Z,102261.80
2018-02-25T08:10:26.398Z,102262.90
2018-02-25T08:12:54.065Z,102256.28
2018-02-25T08:15:21.859Z,102262.69
2018-02-25T08:17:49.531Z,102265.03
2018-02-25T08:20:17.234Z,102263.25
2018-02-25T08:22:44.915Z,102259.67
2018-02-25T08:25:12.685Z,102261.78
2018-02-25T08:27:40.399Z,102264.52
2018-02-25T08:30:08.058Z,102270.53
2018-02-25T08:32:35.772Z,102264.33
2018-02-25T08:35:03.428Z,102270.68
2018-02-25T08:37:31.123Z,102269.30
2018-02-25T08:39:58.803Z,102266.50
2018-02-25T08:42:26.504Z,102264.70
2018-02-25T08:44:54.249Z,102264.44
2018-02-25T08:47:21.947Z,102264.42
2018-02-25T08:49:50.299Z,102259.58
2018-02-25T08:52:19.018Z,102265.73
2018-02-25T08:54:46.692Z,102266.58
2018-02-25T08:57:14.386Z,102273.09
2018-02-25T08:59:42.043Z,102272.75
2018-02-25T09:02:09.738Z,102270.37
2018-02-25T09:04:37.408Z,102267.22
2018-02-25T09:07:05.114Z,102275.84
2018-02-25T09:09:32.846Z,102270.77
2018-02-25T09:12:00.544Z,102278.35
2018-02-25T09:14:28.211Z,102270.77
2018-02-25T09:16:55.908Z,102277.38
2018-02-25T09:19:23.570Z,102271.08
2018-02-25T09:21:51.276Z,102267.60
2018-02-25T09:24:18.959Z,102267.21
2018-02-25T09:26:46.642Z,102271.17
2018-02-25T09:29:14.319Z,102276.05
2018-02-25T09:31:42.050Z,102276.31
2018-02-25T09:34:09.730Z,102273.92
2018-02-25T09:36:37.422Z,102270.86
2018-02-25T09:39:05.238Z,102266.73
2018-02-25T09:41:33.032Z,102260.27
2018-02-25T09:44:00.690Z,102263.61
2018-02-25T09:46:28.386Z,102259.97
2018-02-25T09:48:56.054Z,102257.20
2018-02-25T09:51:23.752Z,102251.89
2018-02-25T09:53:51.421Z,102249.34
2018-02-25T09:56:19.177Z,102246.78
2018-02-25T09:58:46.841Z,102240.86
2018-02-25T10:01:14.562Z,102244.39
2018-02-25T10:03:42.232Z,102239.78
2018-02-25T10:06:09.918Z,102236.91
2018-02-25T10:08:37.579Z,102237.66
2018-02-25T10:11:05.270Z,102237.90
2018-02-25T10:13:32.962Z,102235.89
2018-02-25T10:16:00.658Z,102231.55
2018-02-25T10:18:28.357Z,102236.63
2018-02-25T10:20:56.051Z,102239.15
2018-02-25T10:23:23.800Z,102237.72
2018-02-25T10:25:51.506Z,102232.52
2018-02-25T10:28:19.185Z,102223.77
2018-02-25T10:30:46.887Z,102223.63
2018-02-25T10:33:14.557Z,102214.31
2018-02-25T10:35:42.251Z,102218.02
2018-02-25T10:38:09.916Z,102216.28
2018-02-25T10:40:37.612Z,102212.23
2018-02-25T10:43:05.294Z,102219.51
2018-02-25T10:45:32.985Z,102210.86
2018-02-25T10:48:00.688Z,102212.91
2018-02-25T10:50:28.419Z,102212.72
2018-02-25T10:52:56.112Z,102211.09
2018-02-25T10:55:23.779Z,102207.13
2018-02-25T10:57:51.471Z,102205.36
2018-02-25T11:00:24.891Z,102208.87
2018-02-25T11:02:52.551Z,102197.89
2018-02-25T11:05:20.223Z,102195.36
2018-02-25T11:07:47.928Z,102191.33
2018-02-25T11:10:15.674Z,102195.86
2018-02-25T11:12:43.318Z,102184.81
2018-02-25T11:15:11.030Z,102183.57
2018-02-25T11:17:38.678Z,102182.83
2018-02-25T11:20:06.415Z,102172.05
2018-02-25T11:22:34.082Z,102174.99
2018-02-25T11:25:01.787Z,102173.72
2018-02-25T11:27:29.478Z,102162.73
2018-02-25T11:29:57.170Z,102164.48
2018-02-25T11:32:24.832Z,102165.87
2018-02-25T11:34:52.536Z,102153.66
2018-02-25T11:37:20.212Z,102152.58
2018-02-25T11:39:47.899Z,102147.00
2018-02-25T11:42:15.585Z,102145.82
2018-02-25T11:44:43.405Z,102140.84
2018-02-25T11:47:11.047Z,102136.39
2018-02-25T11:49:38.745Z,102133.34
2018-02-25T11:52:06.429Z,102131.91
2018-02-25T11:54:34.140Z,102127.77
2018-02-25T11:57:01.737Z,102121.03
2018-02-25T11:59:29.366Z,102114.33
2018-02-25T12:01:56.971Z,102121.87
2018-02-25T12:04:24.596Z,102118.19
2018-02-25T12:06:52.170Z,102114.03
2018-02-25T12:09:19.795Z,102107.66
2018-02-25T12:11:47.395Z,102112.98
2018-02-25T12:14:15.097Z,102103.95
2018-02-25T12:16:42.772Z,102097.26
2018-02-25T12:19:10.421Z,102092.17
2018-02-25T12:21:38.002Z,102092.66
2018-02-25T12:24:05.686Z,102093.34
2018-02-25T12:26:33.279Z,102092.25
2018-02-25T12:29:00.930Z,102079.36
2018-02-25T12:31:28.541Z,102082.43
2018-02-25T12:33:56.179Z,102091.27
2018-02-25T12:36:23.820Z,102076.28
2018-02-25T12:38:51.500Z,102077.61
2018-02-25T12:41:19.135Z,102072.68
2018-02-25T12:43:46.723Z,102067.78
2018-02-25T12:46:14.326Z,102056.42
2018-02-25T12:48:41.974Z,102065.70
2018-02-25T12:51:09.604Z,102054.44
2018-02-25T12:53:37.222Z,102063.84
2018-02-25T12:56:04.817Z,102050.60
2018-02-25T12:58:32.450Z,102048.52
2018-02-25T13:01:00.065Z,102061.06
2018-02-25T13:03:27.737Z,102056.67
2018-02-25T13:05:55.299Z,102052.85
2018-02-25T13:08:22.910Z,102045.79
2018-02-25T13:10:50.498Z,102042.76
2018-02-25T13:13:18.114Z,102044.42
2018-02-25T13:15:45.716Z,102044.80
2018-02-25T13:18:13.339Z,102035.80
2018-02-25T13:20:40.958Z,102039.20
2018-02-25T13:23:08.713Z,102041.71
2018-02-25T13:25:36.299Z,102032.81
2018-02-25T13:28:03.931Z,102035.97
2018-02-25T13:30:31.624Z,102028.19
2018-02-25T13:32:59.255Z,102027.06
2018-02-25T13:35:26.859Z,102019.33
2018-02-25T13:37:54.499Z,102016.53
2018-02-25T13:40:22.096Z,102016.99
2018-02-25T13:42:49.731Z,102015.36
2018-02-25T13:45:17.340Z,102011.27
2018-02-25T13:47:44.955Z,102021.04
2018-02-25T13:50:12.543Z,102015.92
2018-02-25T13:52:40.158Z,102017.28
2018-02-25T13:55:09.272Z,102013.45
2018-02-25T13:57:36.979Z,102014.45
2018-02-25T14:00:04.606Z,102003.90
2018-02-25T14:02:32.289Z,102014.45
2018-02-25T14:04:59.934Z,102011.66
2018-02-25T14:07:27.547Z,102010.20
2018-02-25T14:09:55.139Z,102007.92
2018-02-25T14:12:22.818Z,101997.52
2018-02-25T14:14:50.409Z,102005.20
2018-02-25T14:17:17.994Z,102000.41
2018-02-25T14:19:45.714Z,102002.04
2018-02-25T14:22:13.301Z,102003.84
2018-02-25T14:24:40.932Z,101989.72
2018-02-25T14:27:08.545Z,101992.73
2018-02-25T14:29:36.141Z,101987.48
2018-02-25T14:32:03.901Z,101988.09
2018-02-25T14:34:31.502Z,101992.56
2018-02-25T14:36:59.107Z,101990.08
2018-02-25T14:39:26.722Z,101987.02
2018-02-25T14:41:54.314Z,101987.67
2018-02-25T14:44:22.146Z,101986.56
2018-02-25T14:46:49.783Z,101985.00
2018-02-25T14:49:17.406Z,101986.48
2018-02-25T14:51:44.998Z,101985.89
2018-02-25T14:54:12.635Z,101984.50
2018-02-25T14:56:40.250Z,101982.20
2018-02-25T14:59:07.886Z,101983.86
2018-02-25T15:01:35.478Z,101980.46
2018-02-25T15:04:03.107Z,101968.38
2018-02-25T15:06:30.719Z,101976.80
2018-02-25T15:08:58.467Z,101980.41
2018-02-25T15:11:26.054Z,101970.51
2018-02-25T15:13:53.722Z,101977.02
2018-02-25T15:16:21.414Z,101972.94
2018-02-25T15:18:49.070Z,101974.92
2018-02-25T15:21:16.642Z,101970.00
2018-02-25T15:23:44.267Z,101974.11
2018-02-25T15:26:11.861Z,101977.38
2018-02-25T15:28:39.496Z,101973.97
2018-02-25T15:31:07.127Z,101971.64
2018-02-25T15:33:34.767Z,101968.36
2018-02-25T15:36:02.372Z,101973.87
2018-02-25T15:38:30.003Z,101976.81
2018-02-25T15:40:57.602Z,101975.34
2018-02-25T15:43:25.241Z,101970.55
2018-02-25T15:45:52.842Z,101973.45
2018-02-25T15:48:20.462Z,101972.50
2018-02-25T15:50:48.231Z,101980.37
2018-02-25T15:53:15.857Z,101982.36
2018-02-25T15:55:43.436Z,101986.98
2018-02-25T15:58:11.070Z,101993.66
2018-02-25T16:00:38.809Z,101995.47
2018-02-25T16:03:06.622Z,101998.54
2018-02-25T16:05:34.219Z,102001.33
2018-02-25T16:08:01.843Z,102001.55
2018-02-25T16:10:29.586Z,102004.74
2018-02-25T16:12:57.225Z,101999.01
2018-02-25T16:15:24.804Z,102000.84
2018-02-25T16:17:52.423Z,101998.81
2018-02-25T16:20:20.007Z,102002.76
2018-02-25T16:22:47.702Z,102002.78
2018-02-25T16:25:15.314Z,102002.65
2018-02-25T16:27:42.933Z,102002.83
2018-02-25T16:30:10.555Z,102003.56
2018-02-25T16:32:38.187Z,102013.84
2018-02-25T16:35:05.867Z,102008.19
2018-02-25T16:37:33.504Z,102010.87
2018-02-25T16:40:01.598Z,102005.56
2018-02-25T16:42:29.344Z,102015.42
2018-02-25T16:44:56.959Z,102016.59
2018-02-25T16:47:24.676Z,102014.48
2018-02-25T16:49:52.411Z,102016.81
2018-02-25T16:52:20.110Z,102014.78
2018-02-25T16:54:47.777Z,102025.77
2018-02-25T16:57:15.486Z,102020.01
2018-02-25T16:59:43.190Z,102025.17
2018-02-25T17:02:10.879Z,102026.84
2018-02-25T17:04:38.582Z,102025.28
2018-02-25T17:07:06.311Z,102026.98
2018-02-25T17:09:33.977Z,102032.12
2018-02-25T17:12:01.713Z,102033.93
2018-02-25T17:14:29.467Z,102041.47
2018-02-25T17:16:57.171Z,102039.91
2018-02-25T17:19:24.839Z,102037.02
2018-02-25T17:21:52.562Z,102033.63
2018-02-25T17:24:21.168Z,102032.66
2018-02-25T17:26:48.897Z,102043.09
2018-02-25T17:29:16.642Z,102040.66
2018-02-25T17:31:44.374Z,102044.73
2018-02-25T17:34:12.075Z,102048.56
2018-02-25T17:36:39.784Z,102052.70
2018-02-25T17:39:07.474Z,102051.69
2018-02-25T17:41:35.167Z,102047.36
2018-02-25T17:44:02.883Z,102057.86
2018-02-25T17:46:30.606Z,102063.14
2018-02-25T17:48:58.284Z,102063.14
2018-02-25T17:51:26.130Z,102060.70
2018-02-25T17:53:53.792Z,102054.43
2018-02-25T17:56:21.506Z,102058.60
2018-02-25T17:58:49.195Z,102062.14
2018-02-25T18:01:16.915Z,102062.91
2018-02-25T18:03:45.635Z,102064.00
2018-02-25T18:06:13.352Z,102060.91
2018-02-25T18:08:41.051Z,102063.19
2018-02-25T18:11:08.764Z,102062.82
2018-02-25T18:13:36.435Z,102060.08
2018-02-25T18:16:04.091Z,102058.84
2018-02-25T18:18:31.802Z,102064.33
2018-02-25T18:20:59.463Z,102056.64
2018-02-25T18:23:27.174Z,102055.55
2018-02-25T18:25:54.846Z,102059.98
2018-02-25T18:28:22.539Z,102059.98
2018-02-25T18:30:50.208Z,102058.55
2018-02-25T18:33:17.899Z,102056.91
2018-02-25T18:35:45.574Z,102060.73
2018-02-25T18:38:13.311Z,102067.03
2018-02-25T18:40:40.979Z,102069.45
2018-02-25T18:43:08.685Z,102069.42
2018-02-25T18:45:36.330Z,102067.64
2018-02-25T18:48:04.047Z,102074.21
2018-02-25T18:50:31.718Z,102060.08
2018-02-25T18:52:59.423Z,102067.08
2018-02-25T18:55:27.094Z,102069.59
2018-02-25T18:57:54.810Z,102070.56
2018-02-25T19:00:22.466Z,102076.39
2018-02-25T19:02:50.172Z,102071.92
2018-02-25T19:05:17.867Z,102079.73
2018-02-25T19:07:45.573Z,102077.58
2018-02-25T19:10:13.255Z,102079.81
2018-02-25T19:12:40.962Z,102081.52
2018-02-25T19:15:08.792Z,102077.30
2018-02-25T19:17:36.486Z,102085.41
2018-02-25T19:20:04.162Z,102087.45
2018-02-25T19:22:31.882Z,102090.08
2018-02-25T19:24:59.576Z,102085.86
2018-02-25T19:27:27.286Z,102087.71
2018-02-25T19:29:54.967Z,102094.56
2018-02-25T19:32:22.692Z,102101.28
2018-02-25T19:34:51.810Z,102104.17
2018-02-25T19:37:25.120Z,102099.07
2018-02-25T19:39:58.665Z,102104.92
2018-02-25T19:42:26.435Z,102106.00
2018-02-25T19:44:54.079Z,102107.95
2018-02-25T19:47:21.831Z,102109.62
2018-02-25T19:49:49.510Z,102107.73
2018-02-25T19:52:17.204Z,102110.20
2018-02-25T19:54:44.928Z,102114.50
2018-02-25T19:57:12.588Z,102117.70
2018-02-25T19:59:40.279Z,102118.52
2018-02-25T20:02:08.064Z,102129.22
2018-02-25T20:04:35.687Z,102123.31
2018-02-25T20:07:03.476Z,102129.30
2018-02-25T20:09:31.146Z,102128.19
2018-02-25T20:11:58.880Z,102133.86
2018-02-25T20:14:26.593Z,102136.92
2018-02-25T20:16:54.314Z,102138.76
2018-02-25T20:19:21.981Z,102140.27
2018-02-25T20:21:49.689Z,102137.98
2018-02-25T20:24:17.356Z,102147.38
2018-02-25T20:26:45.052Z,102140.62
2018-02-25T20:29:12.747Z,102140.55
2018-02-25T20:31:40.480Z,102144.46
2018-02-25T20:34:08.142Z,102138.00
2018-02-25T20:36:35.955Z,102136.48
2018-02-25T20:39:03.642Z,102145.19
2018-02-25T20:41:31.334Z,102144.54
2018-02-25T20:43:59.028Z,102136.81
2018-02-25T20:46:26.740Z,102138.59
2018-02-25T20:48:54.419Z,102143.69
2018-02-25T20:51:22.090Z,102145.55
2018-02-25T20:53:49.790Z,102147.94
2018-02-25T20:56:17.454Z,102150.48
2018-02-25T20:58:45.164Z,102147.11
2018-02-25T21:01:12.858Z,102148.97
2018-02-25T21:03:40.746Z,102149.95
2018-02-25T21:06:08.451Z,102148.30
2018-02-25T21:08:36.115Z,102145.83
2018-02-25T21:11:03.830Z,102150.52
2018-02-25T21:13:31.502Z,102150.42
2018-02-25T21:15:59.200Z,102155.00
2018-02-25T21:18:26.863Z,102155.17
2018-02-25T21:20:54.685Z,102161.66
2018-02-25T21:23:22.370Z,102153.07
2018-02-25T21:25:50.081Z,102154.78
2018-02-25T21:28:17.774Z,102158.48
2018-02-25T21:30:45.466Z,102152.70
2018-02-25T21:33:13.312Z,102159.82
2018-02-25T21:35:41.068Z,102163.62
2018-02-25T21:38:08.718Z,102161.03
2018-02-25T21:40:36.431Z,102166.11
2018-02-25T21:43:04.130Z,102175.97
2018-02-25T21:45:31.822Z,102168.45
2018-02-25T21:47:59.508Z,102178.28
2018-02-25T21:50:27.220Z,102168.25
2018-02-25T21:52:54.883Z,102171.33
2018-02-25T21:55:22.566Z,102172.98
2018-02-25T21:57:55.767Z,102174.95
2018-02-25T22:00:29.102Z,102173.34
2018-02-25T22:03:02.151Z,102174.69
2018-02-25T22:05:29.840Z,102177.37
2018-02-25T22:07:57.505Z,102173.98
2018-02-25T22:10:25.194Z,102167.48
2018-02-25T22:12:52.866Z,102177.05
2018-02-25T22:15:20.518Z,102175.39
2018-02-25T22:17:48.227Z,102179.97
2018-02-25T22:20:15.878Z,102175.16
2018-02-25T22:22:43.588Z,102177.10
2018-02-25T22:25:11.277Z,102177.38
2018-02-25T22:27:39.100Z,102178.46
2018-02-25T22:30:06.722Z,102185.46
2018-02-25T22:32:34.430Z,102175.06
2018-02-25T22:35:02.098Z,102180.23
2018-02-25T22:37:29.818Z,102180.16
2018-02-25T22:39:57.582Z,102185.14
2018-02-25T22:42:25.272Z,102187.09
2018-02-25T22:44:52.935Z,102188.67
2018-02-25T22:47:20.624Z,102185.20
2018-02-25T22:49:48.274Z,102179.27
2018-02-25T22:52:16.015Z,102186.94
2018-02-25T22:54:43.691Z,102184.17
2018-02-25T22:57:11.466Z,102183.75
2018-02-25T22:59:39.138Z,102191.06
2018-02-25T23:02:06.826Z,102185.99
2018-02-25T23:04:34.482Z,102192.02
2018-02-25T23:07:02.174Z,102195.87
2018-02-25T23:09:29.838Z,102199.58
2018-02-25T23:11:57.531Z,102205.80
2018-02-25T23:14:25.287Z,102203.22
2018-02-25T23:16:52.953Z,102209.16
2018-02-25T23:19:20.704Z,102209.63
2018-02-25T23:21:48.372Z,102206.23
2018-02-25T23:24:16.222Z,102207.58
2018-02-25T23:26:43.914Z,102202.87
2018-02-25T23:29:11.585Z,102208.05
2018-02-25T23:31:39.282Z,102205.78
2018-02-25T23:34:07.103Z,102209.68
2018-02-25T23:36:34.790Z,102201.75
2018-02-25T23:39:02.493Z,102205.35
2018-02-25T23:41:30.209Z,102208.82
2018-02-25T23:43:57.877Z,102208.55
2018-02-25T23:46:25.591Z,102211.17
2018-02-25T23:48:53.264Z,102211.83
2018-02-25T23:51:20.967Z,102208.83
2018-02-25T23:53:48.630Z,102216.52
2018-02-25T23:56:16.345Z,102215.16
2018-02-25T23:58:44.027Z,102215.19
